Bergamot Ace — ZGAS5 — position and weather

sailwx.info

Track history (hours):
 
Tides and Currents Weather Stations Pressure Air Temp Water Temp Dewpoint Dewpoint Depression Visibility Wind Speed Wind Dir Waves Ship Positions

Bergamot Ace

Last reported at 2017-Feb-17 21:27 UTC. Time now 2017-Feb-20 22:31 UTC.
Position S 33°43' E 151°46'.

Length 186 m; draft 7.4 m.

Type: Cargo ship. MMSI: 319740000.

Date/timePositionNaut miles runAvg speedWind from/ knotsBaromVisibWave heightAir tempDewpointWater temp
2017-Feb-17 21:27S 33°43' E 151°46'1618.5
2017-Feb-17 20:33S 33°29' E 151°57'1515.0
2017-Feb-17 19:34S 33°17' E 152°08'1515.2
2017-Feb-17 18:33S 33°04' E 152°18'1514.6
2017-Feb-17 17:34S 32°52' E 152°27'1414.1
2017-Feb-17 16:33S 32°40' E 152°36'1515.2
2017-Feb-17 15:33S 32°28' E 152°47'1514.9
2017-Feb-17 14:33S 32°14' E 152°52'1714.6
2017-Feb-17 13:25S 31°58' E 152°57'1614.9
2017-Feb-17 12:20S 31°42' E 153°01'21715.5
2017-Feb-16 22:23S 28°09' E 153°50'1517.8
2017-Feb-16 21:34S 27°55' E 153°50'1717.3
2017-Feb-16 20:34S 27°37' E 153°50'1716.8
2017-Feb-16 19:33S 27°20' E 153°48'1616.3
2017-Feb-16 18:34S 27°06' E 153°41'1515.5
2017-Feb-16 17:34S 26°53' E 153°31'1515.4
2017-Feb-16 16:33S 26°46' E 153°15'5 5.4
2017-Feb-16 15:34S 26°49' E 153°10'1515.4
2017-Feb-16 14:33S 27°03' E 153°17'1313.2
2017-Feb-16 13:33S 27°16' E 153°16'8 8.2
2017-Feb-16 12:32S 27°23' E 153°10'0 0.0
2017-Feb-16 11:32S 27°23' E 153°10'0 0.0
2017-Feb-16 10:32S 27°23' E 153°10'0 0.0
2017-Feb-16 09:32S 27°23' E 153°10'0 0.0
2017-Feb-16 08:32S 27°23' E 153°10'0 0.0
2017-Feb-16 07:32S 27°23' E 153°10'0 0.0
2017-Feb-16 06:32S 27°23' E 153°10'0 0.0
2017-Feb-16 05:32S 27°23' E 153°10'0 0.0
2017-Feb-16 04:32S 27°23' E 153°10'0 0.0
2017-Feb-16 03:32S 27°23' E 153°10'0 0.1
2017-Feb-16 02:32S 27°23' E 153°10'0 0.1
2017-Feb-16 01:32S 27°23' E 153°10'0 0.0
2017-Feb-16 00:32S 27°23' E 153°10'0 0.0
2017-Feb-15 23:32S 27°23' E 153°10'0 0.0
2017-Feb-15 22:32S 27°23' E 153°10'0 0.2
2017-Feb-15 21:33S 27°22' E 153°10'9 8.9
2017-Feb-15 20:33S 27°16' E 153°17'1312.8
2017-Feb-15 19:33S 27°03' E 153°17'1515.0
2017-Feb-15 18:33S 26°50' E 153°09'9 8.5
2017-Feb-15 17:33S 26°42' E 153°12'5 4.3
2017-Feb-15 16:29S 26°38' E 153°15'  
Track history (hours):
 
Tides and Currents Weather Stations Pressure Air Temp Water Temp Dewpoint Dewpoint Depression Visibility Wind Speed Wind Dir Waves Ship Positions

Bergamot Ace

Last reported at 2017-Feb-17 21:27 UTC. Time now 2017-Feb-20 22:31 UTC.
Position S 33°43' E 151°46'.

Length 186 m; draft 7.4 m.

Type: Cargo ship. MMSI: 319740000.

Date/timePositionNaut miles runAvg speedWind from/ knotsBaromVisibWave heightAir tempDewpointWater temp
2017-Feb-17 21:27S 33°43' E 151°46'1618.5
2017-Feb-17 20:33S 33°29' E 151°57'1515.0
2017-Feb-17 19:34S 33°17' E 152°08'1515.2
2017-Feb-17 18:33S 33°04' E 152°18'1514.6
2017-Feb-17 17:34S 32°52' E 152°27'1414.1
2017-Feb-17 16:33S 32°40' E 152°36'1515.2
2017-Feb-17 15:33S 32°28' E 152°47'1514.9
2017-Feb-17 14:33S 32°14' E 152°52'1714.6
2017-Feb-17 13:25S 31°58' E 152°57'1614.9
2017-Feb-17 12:20S 31°42' E 153°01'21715.5
2017-Feb-16 22:23S 28°09' E 153°50'1517.8
2017-Feb-16 21:34S 27°55' E 153°50'1717.3
2017-Feb-16 20:34S 27°37' E 153°50'1716.8
2017-Feb-16 19:33S 27°20' E 153°48'1616.3
2017-Feb-16 18:34S 27°06' E 153°41'1515.5
2017-Feb-16 17:34S 26°53' E 153°31'1515.4
2017-Feb-16 16:33S 26°46' E 153°15'5 5.4
2017-Feb-16 15:34S 26°49' E 153°10'1515.4
2017-Feb-16 14:33S 27°03' E 153°17'1313.2
2017-Feb-16 13:33S 27°16' E 153°16'8 8.2
2017-Feb-16 12:32S 27°23' E 153°10'0 0.0
2017-Feb-16 11:32S 27°23' E 153°10'0 0.0
2017-Feb-16 10:32S 27°23' E 153°10'0 0.0
2017-Feb-16 09:32S 27°23' E 153°10'0 0.0
2017-Feb-16 08:32S 27°23' E 153°10'0 0.0
2017-Feb-16 07:32S 27°23' E 153°10'0 0.0
2017-Feb-16 06:32S 27°23' E 153°10'0 0.0
2017-Feb-16 05:32S 27°23' E 153°10'0 0.0
2017-Feb-16 04:32S 27°23' E 153°10'0 0.0
2017-Feb-16 03:32S 27°23' E 153°10'0 0.1
2017-Feb-16 02:32S 27°23' E 153°10'0 0.1
2017-Feb-16 01:32S 27°23' E 153°10'0 0.0
2017-Feb-16 00:32S 27°23' E 153°10'0 0.0
2017-Feb-15 23:32S 27°23' E 153°10'0 0.0
2017-Feb-15 22:32S 27°23' E 153°10'0 0.2
2017-Feb-15 21:33S 27°22' E 153°10'9 8.9
2017-Feb-15 20:33S 27°16' E 153°17'1312.8
2017-Feb-15 19:33S 27°03' E 153°17'1515.0
2017-Feb-15 18:33S 26°50' E 153°09'9 8.5
2017-Feb-15 17:33S 26°42' E 153°12'5 4.3
2017-Feb-15 16:29S 26°38' E 153°15'  

Dump ship's entire track history